Time;durP1;ratioP1;P1;durP2;ratioP2;P2;SDS_P1;SDS_P2;PMS_P1;PMS_P2;Temp;Humidity;BMP_temperature;BMP_pressure;BME280_temperature;BME280_humidity;BME280_pressure;Samples;Min_cycle;Max_cycle;Signal;HPM_P1;HPM_P2
2022/12/01 00:01:09;;;;;;;47.33;28.30;;;8.80;82.70;;;11.83;58.66;102674.78;5053053;28;20189;-55
2022/12/01 00:03:36;;;;;;;42.30;27.43;;;8.80;82.90;;;11.86;58.61;102672.69;5053515;28;20239;-54
2022/12/01 00:06:08;;;;;;;53.87;29.23;;;8.80;82.80;;;11.83;57.77;102673.00;5054094;28;20663;-55
2022/12/01 00:08:35;;;;;;;47.00;28.07;;;8.90;82.20;;;11.75;58.24;102662.25;5073406;28;20239;-55
2022/12/01 00:11:06;;;;;;;50.07;29.60;;;8.90;81.90;;;11.68;58.23;102673.47;5057716;28;20194;-57
2022/12/01 00:13:33;;;;;;;51.97;28.03;;;8.90;81.70;;;11.61;58.07;102670.50;5090202;28;20192;-55
2022/12/01 00:16:09;;;;;;;52.00;28.30;;;8.80;81.60;;;11.56;58.21;102672.72;5093397;28;20192;-54
2022/12/01 00:18:37;;;;;;;48.73;26.70;;;8.80;82.00;;;11.58;58.34;102671.63;5091721;28;20192;-55
2022/12/01 00:21:05;;;;;;;47.50;27.53;;;8.70;82.20;;;11.61;58.72;102674.94;5072380;28;20193;-56
2022/12/01 00:23:32;;;;;;;51.37;29.10;;;8.70;82.60;;;11.62;58.52;102677.47;5073320;28;20658;-55
2022/12/01 00:26:04;;;;;;;54.37;28.97;;;8.70;82.40;;;11.60;58.24;102674.09;5073089;28;20219;-56
2022/12/01 00:28:31;;;;;;;49.77;29.03;;;8.70;82.60;;;11.63;58.92;102675.66;5071206;28;20203;-58
2022/12/01 00:30:59;;;;;;;47.83;28.03;;;8.70;82.80;;;11.62;58.42;102671.34;5072732;28;20685;-56
2022/12/01 00:33:26;;;;;;;53.57;27.77;;;8.70;82.60;;;11.63;58.81;102678.28;5072958;28;20642;-58
2022/12/01 00:35:58;;;;;;;47.37;27.60;;;8.70;82.70;;;11.64;58.56;102678.16;5072999;28;20549;-55
2022/12/01 00:38:25;;;;;;;48.50;28.70;;;8.70;82.80;;;11.69;58.86;102676.00;5083914;28;20183;-55
2022/12/01 00:40:52;;;;;;;50.57;26.47;;;8.70;82.60;;;11.69;58.63;102678.63;5092661;28;20605;-55
2022/12/01 00:43:23;;;;;;;42.13;24.90;;;8.70;82.40;;;11.67;58.42;102680.50;5078612;28;20201;-56
2022/12/01 00:45:50;;;;;;;44.40;25.97;;;8.80;82.40;;;11.65;58.31;102674.53;5072230;28;20205;-56
2022/12/01 00:48:17;;;;;;;47.07;25.93;;;8.70;82.20;;;11.65;58.30;102679.00;5073699;28;20272;-59
2022/12/01 00:50:45;;;;;;;47.77;27.63;;;8.80;82.50;;;11.67;58.84;102680.50;5072895;28;20205;-57
2022/12/01 00:53:12;;;;;;;49.57;27.83;;;8.70;82.60;;;11.69;58.93;102678.63;5072908;28;20209;-56
2022/12/01 00:55:39;;;;;;;54.17;29.40;;;8.80;82.80;;;11.68;58.48;102684.88;5073064;28;20185;-56
2022/12/01 00:58:06;;;;;;;45.67;26.63;;;8.80;82.60;;;11.65;58.31;102681.66;5072978;28;20189;-55
2022/12/01 01:00:37;;;;;;;47.37;26.43;;;8.80;82.30;;;11.65;58.67;102681.66;5075813;28;20227;-56
2022/12/01 01:03:05;;;;;;;50.10;26.97;;;8.80;82.40;;;11.62;58.02;102682.75;5062226;28;20210;-57
2022/12/01 01:05:35;;;;;;;51.90;28.83;;;8.80;82.40;;;11.60;58.84;102679.38;5056161;28;20237;-56
2022/12/01 01:08:06;;;;;;;55.50;31.27;;;8.80;82.30;;;11.55;57.88;102681.59;5074437;28;20193;-55
2022/12/01 01:10:36;;;;;;;48.67;26.33;;;8.70;81.90;;;11.52;58.77;102693.25;5076921;28;20556;-56
2022/12/01 01:13:04;;;;;;;49.13;26.47;;;8.70;82.20;;;11.50;58.67;102689.06;5075869;28;20278;-54
2022/12/01 01:15:31;;;;;;;50.13;27.80;;;8.70;82.10;;;11.44;58.30;102682.53;5076879;28;20181;-55
2022/12/01 01:17:59;;;;;;;44.47;27.13;;;8.60;82.00;;;11.42;58.41;102683.63;5076699;28;20194;-59
2022/12/01 01:20:26;;;;;;;51.40;28.73;;;8.60;82.10;;;11.42;59.15;102680.97;5074121;28;20200;-56
2022/12/01 01:22:53;;;;;;;49.20;27.33;;;8.60;82.80;;;11.45;58.94;102686.00;5076724;28;20209;-56
2022/12/01 01:25:21;;;;;;;47.10;28.33;;;8.60;83.10;;;11.50;59.23;102681.97;5078176;28;21066;-56
2022/12/01 01:27:49;;;;;;;48.00;28.53;;;8.60;83.20;;;11.51;58.88;102693.38;5078229;28;20232;-57
2022/12/01 01:30:17;;;;;;;48.97;28.20;;;8.60;82.70;;;11.48;58.50;102685.75;5077501;28;20273;-56
2022/12/01 01:32:44;;;;;;;44.03;25.77;;;8.60;82.60;;;11.43;58.64;102690.56;5080472;28;20366;-57
2022/12/01 01:35:12;;;;;;;49.63;27.93;;;8.60;82.60;;;11.41;58.88;102695.16;5080231;28;20673;-58
2022/12/01 01:37:39;;;;;;;51.13;27.50;;;8.60;82.60;;;11.40;58.63;102696.09;5080271;28;20193;-55
2022/12/01 01:40:08;;;;;;;53.00;31.23;;;8.60;82.80;;;11.35;58.72;102695.66;5078275;28;20205;-54
2022/12/01 01:42:35;;;;;;;48.03;27.57;;;8.60;82.70;;;11.35;59.03;102706.19;5075353;28;20545;-57
2022/12/01 01:45:03;;;;;;;52.77;29.40;;;8.50;83.30;;;11.37;59.14;102701.63;5075872;28;20197;-58
2022/12/01 01:47:34;;;;;;;57.90;32.57;;;8.50;83.40;;;11.34;59.20;102693.97;5074933;28;20205;-55
2022/12/01 01:50:08;;;;;;;58.57;30.90;;;8.50;83.00;;;11.31;59.43;102704.81;5075353;28;20286;-58
2022/12/01 01:52:43;;;;;;;67.93;34.43;;;8.50;83.20;;;11.20;58.96;102700.44;5075252;28;20213;-60
2022/12/01 01:55:12;;;;;;;59.87;32.70;;;8.50;82.80;;;11.12;58.96;102697.63;5075849;28;20483;-57
2022/12/01 01:57:40;;;;;;;59.90;32.80;;;8.40;82.80;;;11.10;59.29;102701.34;5075759;28;20736;-56
2022/12/01 02:00:12;;;;;;;62.60;34.47;;;8.40;83.30;;;11.10;59.59;102696.91;5075466;28;20204;-55
2022/12/01 02:02:45;;;;;;;69.23;35.23;;;8.30;83.40;;;11.13;59.81;102706.34;5075158;28;20224;-54
2022/12/01 02:05:18;;;;;;;56.90;32.23;;;8.30;83.60;;;11.16;60.03;102700.81;5077476;28;20193;-53
2022/12/01 02:07:49;;;;;;;67.37;35.40;;;8.30;84.10;;;11.21;59.86;102699.47;5070181;28;20205;-55
2022/12/01 02:10:21;;;;;;;59.37;33.50;;;8.30;84.50;;;11.27;59.91;102698.94;5074666;28;20595;-55
2022/12/01 02:13:08;;;;;;;67.63;36.67;;;8.30;84.80;;;11.31;59.47;102710.91;5074229;28;20246;-54
2022/12/01 02:15:50;;;;;;;62.07;34.00;;;8.40;84.40;;;11.28;59.79;102700.63;5075765;28;20182;-56
2022/12/01 02:18:29;;;;;;;68.67;37.27;;;8.40;84.10;;;11.31;59.96;102703.00;5074012;28;20177;-57
2022/12/01 02:21:55;;;;;;;60.73;32.47;;;8.40;84.10;;;11.29;59.98;102697.00;5054689;28;20252;-58
2022/12/01 02:25:17;;;;;;;68.63;36.10;;;8.50;84.30;;;11.34;59.90;102693.97;5056074;28;20194;-56
2022/12/01 02:28:28;;;;;;;66.47;35.30;;;8.50;84.50;;;11.36;59.44;102692.06;5052688;28;20213;-55
2022/12/01 02:31:06;;;;;;;66.23;36.67;;;8.50;84.30;;;11.42;59.82;102700.28;5054546;28;20186;-59
2022/12/01 02:33:41;;;;;;;62.77;34.57;;;8.50;83.90;;;11.42;59.64;102696.81;5054457;28;20221;-56
2022/12/01 02:36:18;;;;;;;70.50;37.30;;;8.50;83.70;;;11.45;59.36;102696.53;5070508;28;20201;-57
2022/12/01 02:38:57;;;;;;;67.37;35.77;;;8.60;83.90;;;11.49;59.34;102700.56;5075169;28;20267;-56
2022/12/01 02:41:31;;;;;;;57.93;35.13;;;8.60;83.90;;;11.53;59.53;102700.19;5068345;28;20696;-60
2022/12/01 02:44:07;;;;;;;63.00;35.93;;;8.60;83.80;;;11.55;59.43;102697.44;5055936;28;20289;-57
2022/12/01 02:46:43;;;;;;;64.63;35.97;;;8.60;83.50;;;11.56;59.34;102704.34;5054455;28;20198;-57
2022/12/01 02:49:18;;;;;;;66.90;37.23;;;8.70;83.60;;;11.60;59.26;102705.75;5054632;28;20190;-55
2022/12/01 02:51:47;;;;;;;62.20;34.53;;;8.70;83.40;;;11.60;58.72;102697.84;5063724;28;20220;-56
2022/12/01 02:54:15;;;;;;;64.47;34.90;;;8.70;84.00;;;11.63;59.12;102699.38;5074387;28;20225;-58
2022/12/01 02:56:44;;;;;;;64.30;36.87;;;8.70;83.10;;;11.65;59.16;102708.03;5074511;28;20594;-55
2022/12/01 02:59:14;;;;;;;60.53;36.27;;;8.70;83.80;;;11.66;58.48;102699.97;5068836;28;20201;-55
2022/12/01 03:02:03;;;;;;;60.23;35.23;;;8.70;83.00;;;11.66;58.92;102705.25;5054339;28;20550;-56
2022/12/01 03:04:49;;;;;;;61.57;35.37;;;8.70;83.10;;;11.69;58.48;102701.53;5055732;28;20602;-58
2022/12/01 03:07:49;;;;;;;60.67;35.67;;;8.70;83.10;;;11.68;58.89;102698.06;5065498;28;20201;-56
2022/12/01 03:10:25;;;;;;;63.23;35.90;;;8.80;82.90;;;11.68;58.44;102692.78;5074762;28;20185;-56
2022/12/01 03:13:08;;;;;;;56.80;35.43;;;8.80;82.80;;;11.70;58.33;102695.28;5074132;28;20620;-56
2022/12/01 03:15:47;;;;;;;58.47;35.20;;;8.80;82.50;;;11.70;58.29;102690.84;5075174;28;20629;-56
2022/12/01 03:18:28;;;;;;;53.77;35.03;;;8.80;82.50;;;11.69;58.26;102694.47;5058852;28;20224;-56
2022/12/01 03:21:04;;;;;;;53.43;34.37;;;8.80;82.20;;;11.61;58.05;102688.13;5053659;28;20193;-57
2022/12/01 03:23:37;;;;;;;56.03;35.33;;;8.80;81.60;;;11.53;58.03;102689.63;5054187;28;20700;-56
2022/12/01 03:26:09;;;;;;;60.83;35.87;;;8.70;81.60;;;11.46;58.33;102690.28;5053992;28;20260;-57
2022/12/01 03:28:43;;;;;;;51.43;33.53;;;8.70;82.60;;;11.40;58.55;102689.03;5053351;28;20232;-56
2022/12/01 03:31:18;;;;;;;56.57;35.43;;;8.60;82.00;;;11.36;59.08;102692.06;5058790;28;20310;-57
2022/12/01 03:33:54;;;;;;;53.10;32.87;;;8.60;82.30;;;11.35;59.31;102690.38;5074099;28;20199;-58
2022/12/01 03:36:29;;;;;;;51.57;32.70;;;8.60;83.30;;;11.37;59.27;102688.44;5054226;28;20196;-56
2022/12/01 03:39:03;;;;;;;58.20;35.83;;;8.50;83.40;;;11.42;59.60;102687.09;5083844;28;20201;-56
2022/12/01 03:41:38;;;;;;;59.10;34.77;;;8.50;83.90;;;11.48;59.58;102697.09;5094086;28;20268;-59
2022/12/01 03:44:11;;;;;;;54.27;34.93;;;8.60;84.00;;;11.49;58.82;102696.16;5095241;28;20649;-57
2022/12/01 03:46:47;;;;;;;49.03;32.73;;;8.60;83.50;;;11.46;58.72;102687.66;5109332;28;20203;-61
2022/12/01 03:49:17;;;;;;;57.20;34.93;;;8.60;83.30;;;11.41;58.80;102687.25;5073029;28;20176;-56
2022/12/01 03:51:57;;;;;;;52.77;34.60;;;8.60;82.80;;;11.34;59.22;102699.25;5062894;28;20209;-56
2022/12/01 03:54:36;;;;;;;53.87;34.80;;;8.50;83.00;;;11.31;59.25;102691.63;5072958;28;20180;-56
2022/12/01 03:57:11;;;;;;;49.67;34.13;;;8.50;83.00;;;11.29;58.92;102690.91;5073262;28;20194;-56
2022/12/01 03:59:42;;;;;;;52.63;35.63;;;8.50;83.00;;;11.27;59.19;102692.81;5072848;28;20204;-55
2022/12/01 04:02:11;;;;;;;58.03;37.77;;;8.40;83.00;;;11.24;59.02;102701.03;5073040;28;20327;-58
2022/12/01 04:04:39;;;;;;;60.97;36.60;;;8.40;83.30;;;11.24;59.25;102695.75;5072931;28;20197;-56
2022/12/01 04:07:12;;;;;;;53.80;36.27;;;8.40;83.70;;;11.26;59.78;102696.44;5072896;28;20217;-54
2022/12/01 04:09:40;;;;;;;61.77;37.30;;;8.40;84.20;;;11.25;59.26;102692.13;5073034;28;20553;-57
2022/12/01 04:12:31;;;;;;;54.30;36.47;;;8.40;83.90;;;11.24;59.50;102698.38;5072389;28;20214;-56
2022/12/01 04:15:01;;;;;;;56.40;35.57;;;8.40;83.80;;;11.22;59.81;102700.31;5073487;28;20243;-57
2022/12/01 04:17:29;;;;;;;59.47;36.20;;;8.30;83.70;;;11.24;59.55;102703.66;5066053;28;20542;-56
2022/12/01 04:19:57;;;;;;;60.47;37.37;;;8.30;83.70;;;11.23;59.64;102707.25;5052348;28;20193;-56
2022/12/01 04:22:25;;;;;;;55.20;36.70;;;8.30;83.70;;;11.23;59.50;102701.97;5052349;28;20716;-57
2022/12/01 04:24:52;;;;;;;55.57;35.40;;;8.30;84.10;;;11.26;59.60;102707.00;5052833;28;20194;-55
2022/12/01 04:27:20;;;;;;;54.53;37.00;;;8.40;84.20;;;11.30;59.88;102700.47;5057819;28;20221;-55
2022/12/01 04:29:48;;;;;;;54.70;37.37;;;8.40;84.00;;;11.31;59.78;102715.34;5072958;28;20193;-55
2022/12/01 04:32:16;;;;;;;53.23;36.53;;;8.40;84.20;;;11.35;60.04;102712.31;5071105;28;20244;-57
2022/12/01 04:34:43;;;;;;;56.00;36.07;;;8.40;84.10;;;11.40;59.80;102710.13;5074729;28;20193;-55
2022/12/01 04:37:12;;;;;;;52.60;35.40;;;8.50;84.30;;;11.41;59.54;102709.13;5077825;28;20181;-57
2022/12/01 04:39:40;;;;;;;62.50;37.47;;;8.50;83.90;;;11.43;59.24;102709.03;5097550;28;20199;-56
2022/12/01 04:42:09;;;;;;;60.33;38.47;;;8.50;83.70;;;11.41;59.39;102705.69;5096729;28;20215;-57
2022/12/01 04:44:36;;;;;;;61.17;38.97;;;8.50;83.50;;;11.39;58.91;102702.31;5097230;28;20199;-55
2022/12/01 04:47:05;;;;;;;58.70;38.00;;;8.50;83.40;;;11.37;59.24;102707.75;5093425;28;20232;-55
2022/12/01 04:49:34;;;;;;;66.97;43.07;;;8.50;83.10;;;11.33;59.23;102708.13;5060761;28;20251;-57
2022/12/01 04:52:01;;;;;;;61.30;38.60;;;8.50;82.90;;;11.30;58.80;102713.66;5068248;28;20208;-56
2022/12/01 04:54:29;;;;;;;58.47;39.07;;;8.40;82.80;;;11.31;59.21;102707.44;5076782;28;20193;-58
2022/12/01 04:56:56;;;;;;;54.87;38.73;;;8.40;83.10;;;11.30;58.73;102703.13;5076643;28;20189;-55
2022/12/01 04:59:23;;;;;;;59.50;39.70;;;8.40;82.80;;;11.29;58.85;102709.38;5076257;28;20599;-58
2022/12/01 05:01:50;;;;;;;56.43;38.90;;;8.40;82.90;;;11.24;59.16;102714.19;5076476;28;20217;-56
2022/12/01 05:04:17;;;;;;;60.03;38.97;;;8.40;82.80;;;11.23;58.85;102712.50;5066634;28;20197;-56
2022/12/01 05:06:44;;;;;;;62.50;40.93;;;8.40;82.90;;;11.22;59.14;102719.56;5063294;28;20291;-55
2022/12/01 05:09:14;;;;;;;62.93;40.97;;;8.30;83.10;;;11.25;58.88;102718.50;5076140;28;20208;-56
2022/12/01 05:11:45;;;;;;;62.47;39.57;;;8.30;83.20;;;11.22;58.88;102711.66;5075519;28;20266;-56
2022/12/01 05:14:12;;;;;;;55.93;37.67;;;8.30;83.00;;;11.24;59.37;102708.94;5076688;28;20201;-56
2022/12/01 05:16:39;;;;;;;61.87;38.97;;;8.30;83.30;;;11.27;59.56;102708.63;5076308;28;20193;-55
2022/12/01 05:21:52;;;;;;;59.07;38.77;;;8.40;83.60;;;11.28;58.76;102716.44;5076631;28;20565;-55
2022/12/01 05:24:21;;;;;;;58.73;39.67;;;8.40;83.30;;;11.30;58.93;102717.13;5076667;28;20206;-55
2022/12/01 05:26:51;;;;;;;61.80;39.33;;;8.40;83.40;;;11.32;58.71;102719.63;5076553;28;20282;-56
2022/12/01 05:29:18;;;;;;;60.27;40.20;;;8.40;83.10;;;11.27;58.45;102719.19;5076192;28;20193;-56
2022/12/01 05:31:45;;;;;;;58.87;38.27;;;8.40;82.60;;;11.21;58.41;102725.84;5076058;28;20271;-55
2022/12/01 05:34:13;;;;;;;62.77;40.83;;;8.40;82.50;;;11.20;59.08;102729.41;5075335;28;20221;-56
2022/12/01 05:36:40;;;;;;;59.60;41.60;;;8.30;82.90;;;11.22;58.71;102727.47;5056755;28;20735;-56
2022/12/01 05:39:07;;;;;;;58.03;38.17;;;8.30;82.90;;;11.20;58.54;102723.31;5089629;28;20207;-57
2022/12/01 05:41:34;;;;;;;57.97;37.60;;;8.30;82.60;;;11.18;58.50;102725.25;5096225;28;20538;-56
2022/12/01 05:44:03;;;;;;;60.13;39.73;;;8.30;82.40;;;11.16;58.64;102727.19;5100179;28;20201;-58
2022/12/01 05:46:30;;;;;;;58.07;39.27;;;8.30;82.60;;;11.18;58.87;102725.25;5102557;28;20193;-58
2022/12/01 05:48:57;;;;;;;64.73;40.57;;;8.30;82.80;;;11.16;58.46;102727.19;5082712;28;20215;-58
2022/12/01 05:51:24;;;;;;;62.37;38.30;;;8.30;82.50;;;11.17;59.05;102726.22;5074442;28;20209;-59
2022/12/01 05:53:51;;;;;;;66.73;40.73;;;8.30;82.70;;;11.18;59.08;102730.50;5081965;28;20549;-57
2022/12/01 05:56:19;;;;;;;59.03;40.27;;;8.30;83.10;;;11.21;58.63;102725.00;5080493;28;20189;-59
2022/12/01 05:58:46;;;;;;;62.10;38.43;;;8.30;83.10;;;11.24;59.09;102727.38;5080199;28;20201;-59
2022/12/01 06:01:14;;;;;;;55.73;37.30;;;8.30;83.10;;;11.28;59.12;102728.78;5079874;28;20278;-58
2022/12/01 06:03:41;;;;;;;56.00;38.37;;;8.40;83.40;;;11.32;58.59;102738.09;5081083;28;20197;-56
2022/12/01 06:06:08;;;;;;;57.83;38.07;;;8.40;83.20;;;11.34;59.02;102729.09;5081394;28;20197;-58
2022/12/01 06:08:36;;;;;;;58.40;40.00;;;8.40;83.80;;;11.34;59.03;102736.16;5084332;28;20216;-59
2022/12/01 06:11:03;;;;;;;60.27;38.30;;;8.40;82.70;;;11.34;58.28;102736.16;5083962;28;20194;-58
2022/12/01 06:13:30;;;;;;;58.80;37.57;;;8.40;82.60;;;11.33;58.31;102734.50;5083245;28;20197;-58
2022/12/01 06:15:59;;;;;;;59.40;39.27;;;8.40;82.70;;;11.34;58.66;102736.16;5083266;28;20189;-59
2022/12/01 06:18:31;;;;;;;61.77;39.60;;;8.40;82.50;;;11.34;58.15;102730.88;5083135;28;20185;-58
2022/12/01 06:20:59;;;;;;;64.50;42.17;;;8.40;82.30;;;11.32;58.51;102732.81;5075428;28;20197;-58
2022/12/01 06:23:27;;;;;;;65.10;41.90;;;8.40;82.40;;;11.28;58.59;102732.25;5083459;28;20264;-59
2022/12/01 06:25:57;;;;;;;60.50;38.43;;;8.40;82.20;;;11.25;58.22;102734.31;5083816;28;20193;-56
2022/12/01 06:28:24;;;;;;;61.43;38.27;;;8.40;82.00;;;11.19;58.08;102740.94;5083178;28;20234;-58
2022/12/01 06:30:51;;;;;;;59.20;40.20;;;8.40;81.70;;;11.15;58.20;102741.34;5083612;28;20189;-58
2022/12/01 06:33:24;;;;;;;60.00;37.90;;;8.40;81.70;;;11.13;58.92;102738.81;5084016;28;20193;-61
2022/12/01 06:35:58;;;;;;;58.83;38.63;;;8.30;82.00;;;11.10;58.55;102739.06;5084477;28;20201;-59
2022/12/01 06:38:29;;;;;;;56.37;38.23;;;8.30;82.10;;;11.11;58.61;102739.91;5092234;28;20188;-58
2022/12/01 06:40:56;;;;;;;64.07;40.40;;;8.30;82.10;;;11.11;58.78;102745.16;5102176;28;20193;-62
2022/12/01 06:43:23;;;;;;;59.33;39.00;;;8.30;82.20;;;11.10;58.51;102743.53;5103020;28;20196;-59
2022/12/01 06:45:50;;;;;;;57.93;37.77;;;8.30;82.20;;;11.13;59.23;102748.50;5102764;28;20192;-59
2022/12/01 06:48:22;;;;;;;55.27;38.07;;;8.30;82.80;;;11.17;58.55;102744.69;5102898;28;20216;-58
2022/12/01 06:50:49;;;;;;;62.20;38.50;;;8.30;82.70;;;11.19;58.88;102748.00;5099726;28;20200;-60
2022/12/01 06:53:17;;;;;;;61.60;41.10;;;8.30;82.50;;;11.18;58.36;102749.81;5070612;28;20229;-58
2022/12/01 06:55:44;;;;;;;60.23;39.77;;;8.30;82.40;;;11.21;58.44;102759.25;5062779;28;20206;-59
2022/12/01 06:58:12;;;;;;;59.10;39.43;;;8.30;82.30;;;11.18;58.26;102751.59;5061468;28;20193;-60
2022/12/01 07:00:40;;;;;;;56.60;38.60;;;8.30;82.20;;;11.18;58.49;102756.88;5060851;28;20713;-61
2022/12/01 07:03:07;;;;;;;59.43;39.40;;;8.30;82.50;;;11.18;58.67;102756.88;5077438;28;20214;-59
2022/12/01 07:05:35;;;;;;;59.77;39.00;;;8.30;82.30;;;11.18;58.72;102755.06;5061577;28;20658;-58
2022/12/01 07:08:02;;;;;;;58.60;38.67;;;8.30;82.30;;;11.17;58.26;102755.22;5067485;28;20669;-59
2022/12/01 07:10:31;;;;;;;60.00;39.33;;;8.30;82.20;;;11.17;58.54;102760.50;5081063;28;20185;-59
2022/12/01 07:12:58;;;;;;;59.60;39.53;;;8.30;82.20;;;11.17;59.02;102765.75;5093368;28;20212;-58
2022/12/01 07:15:27;;;;;;;59.73;40.63;;;8.30;82.30;;;11.19;58.40;102769.09;5101527;28;20215;-57
2022/12/01 07:17:54;;;;;;;60.13;41.27;;;8.30;82.30;;;11.19;58.09;102779.63;5081137;28;20335;-59
2022/12/01 07:20:21;;;;;;;63.73;40.53;;;8.30;82.00;;;11.13;57.83;102772.22;5064401;28;20611;-57
2022/12/01 07:22:48;;;;;;;62.50;40.43;;;8.30;81.10;;;11.06;58.40;102774.53;5060550;28;20205;-60
2022/12/01 07:25:15;;;;;;;59.43;40.03;;;8.30;81.20;;;11.00;58.13;102771.59;5080625;28;20195;-59
2022/12/01 07:27:44;;;;;;;57.03;38.90;;;8.30;80.70;;;10.93;57.86;102776.53;5083651;28;20213;-59
2022/12/01 07:30:11;;;;;;;55.07;37.60;;;8.30;80.50;;;10.87;57.68;102780.50;5083070;28;20189;-59
2022/12/01 07:32:39;;;;;;;57.30;37.33;;;8.20;80.40;;;10.82;58.09;102782.66;5082495;28;20311;-60
2022/12/01 07:35:09;;;;;;;55.27;37.43;;;8.10;80.40;;;10.76;58.38;102771.81;5082165;28;20199;-57
2022/12/01 07:37:36;;;;;;;55.73;37.27;;;8.10;80.40;;;10.77;58.11;102784.00;5081294;28;20189;-59
2022/12/01 07:40:04;;;;;;;57.33;36.63;;;8.10;80.80;;;10.81;57.81;102788.91;5068954;28;20206;-58
2022/12/01 07:42:31;;;;;;;57.53;38.00;;;8.10;81.00;;;10.80;58.06;102784.59;5059602;28;20213;-59
2022/12/01 07:45:00;;;;;;;61.77;40.00;;;8.00;80.60;;;10.76;58.18;102788.47;5061358;28;20209;-59
2022/12/01 07:47:27;;;;;;;56.97;37.07;;;8.00;80.70;;;10.80;58.51;102792.50;5066261;28;20267;-60
2022/12/01 07:49:54;;;;;;;58.20;37.43;;;8.00;81.30;;;10.83;58.12;102794.91;5079881;28;20197;-59
2022/12/01 07:52:21;;;;;;;58.13;38.13;;;8.00;81.20;;;10.84;57.92;102793.91;5079797;28;20213;-59
2022/12/01 07:54:48;;;;;;;57.93;39.70;;;8.00;80.90;;;10.84;57.98;102786.00;5075591;28;20189;-57
2022/12/01 07:57:16;;;;;;;57.77;39.43;;;8.00;81.00;;;10.82;58.02;102787.94;5074439;28;20207;-56
2022/12/01 07:59:43;;;;;;;55.67;37.63;;;8.00;80.80;;;10.78;57.44;102790.94;5077854;28;20192;-58
2022/12/01 08:02:12;;;;;;;60.00;38.53;;;8.10;80.50;;;10.73;57.61;102786.06;5078090;28;20216;-57
2022/12/01 08:04:39;;;;;;;61.03;39.03;;;8.00;80.40;;;10.76;57.68;102791.09;5077558;28;21137;-58
2022/12/01 08:07:06;;;;;;;58.20;38.43;;;8.00;80.90;;;10.75;58.06;102791.19;5076980;28;20197;-58
2022/12/01 08:09:33;;;;;;;64.93;39.70;;;8.00;80.70;;;10.73;57.86;102793.97;5074060;28;20193;-59
2022/12/01 08:12:00;;;;;;;56.93;37.07;;;8.00;80.30;;;10.74;57.78;102789.53;5064119;28;20224;-57
2022/12/01 08:14:27;;;;;;;54.07;35.37;;;8.00;80.40;;;10.77;57.77;102795.38;5074221;28;20193;-56
2022/12/01 08:16:54;;;;;;;57.23;38.40;;;8.00;80.50;;;10.76;57.22;102791.09;5073450;28;20193;-57
2022/12/01 08:19:24;;;;;;;56.00;37.07;;;8.00;80.20;;;10.80;58.37;102789.88;5072887;28;20185;-56
2022/12/01 08:21:51;;;;;;;59.47;38.13;;;8.00;80.90;;;10.84;57.99;102799.19;5073068;28;20296;-57
2022/12/01 08:24:18;;;;;;;60.83;39.13;;;8.00;80.50;;;10.78;57.46;102802.34;5073399;28;20185;-57
2022/12/01 08:26:48;;;;;;;61.43;39.67;;;8.10;79.80;;;10.73;56.68;102801.88;5072052;28;20600;-58
2022/12/01 08:29:15;;;;;;;54.37;36.77;;;8.00;79.30;;;10.72;57.02;102808.06;5074069;28;20225;-61
2022/12/01 08:31:46;;;;;;;55.60;37.63;;;8.00;79.70;;;10.72;56.96;102802.00;5074944;28;20209;-57
2022/12/01 08:34:14;;;;;;;50.77;36.37;;;8.00;79.50;;;10.73;56.96;102808.91;5071696;28;20709;-56
2022/12/01 08:36:42;;;;;;;50.83;33.70;;;8.00;79.70;;;10.77;57.53;102811.19;5072777;28;20490;-58
2022/12/01 08:39:09;;;;;;;50.77;33.27;;;8.00;79.80;;;10.80;56.92;102816.22;5090581;28;20253;-55
2022/12/01 08:41:36;;;;;;;51.27;34.93;;;8.00;79.40;;;10.76;56.66;102819.22;5076765;28;20217;-57
2022/12/01 08:44:04;;;;;;;50.33;35.07;;;8.00;78.80;;;10.73;56.76;102820.31;5054125;28;20193;-56
2022/12/01 08:46:33;;;;;;;48.77;33.67;;;8.00;78.90;;;10.73;56.43;102815.03;5054152;28;20201;-57
2022/12/01 08:49:02;;;;;;;52.10;35.50;;;8.00;79.10;;;10.76;56.98;102817.44;5073665;28;20279;-56
2022/12/01 08:51:30;;;;;;;51.70;34.20;;;8.00;79.00;;;10.78;56.50;102818.13;5071843;28;20581;-56
2022/12/01 08:53:59;;;;;;;52.27;35.40;;;8.00;79.20;;;10.79;56.62;102825.06;5073924;28;20193;-58
2022/12/01 08:56:30;;;;;;;53.43;34.90;;;8.00;78.90;;;10.77;57.04;102821.72;5072258;28;20202;-56
2022/12/01 08:58:57;;;;;;;55.17;36.07;;;8.00;79.10;;;10.77;56.75;102832.25;5053415;28;20186;-57
2022/12/01 09:01:25;;;;;;;51.63;32.63;;;8.00;78.90;;;10.76;56.23;102835.88;5052821;28;20234;-57
2022/12/01 09:04:07;;;;;;;50.53;33.80;;;8.00;78.70;;;10.69;56.45;102829.41;5052993;28;20717;-56
2022/12/01 09:06:39;;;;;;;47.87;32.40;;;8.00;78.10;;;10.71;56.69;102824.84;5058997;28;20292;-56
2022/12/01 09:09:09;;;;;;;54.53;33.70;;;8.00;79.10;;;10.77;56.78;102832.25;5073669;28;20252;-57
2022/12/01 09:11:37;;;;;;;47.80;31.87;;;8.00;79.40;;;10.81;56.59;102833.69;5072583;28;20213;-55
2022/12/01 09:14:04;;;;;;;44.33;30.70;;;8.00;78.60;;;10.80;56.07;102837.28;5054416;28;20208;-56
2022/12/01 09:16:32;;;;;;;46.33;31.00;;;8.00;77.90;;;10.82;56.04;102835.34;5052325;28;20216;-57
2022/12/01 09:19:02;;;;;;;48.03;32.03;;;8.10;78.20;;;10.82;55.50;102840.63;5052665;28;20682;-56
2022/12/01 09:21:32;;;;;;;48.60;30.43;;;8.00;77.80;;;10.81;55.27;102843.38;5056244;28;20209;-55
2022/12/01 09:24:00;;;;;;;47.53;33.13;;;8.10;77.40;;;10.78;55.69;102848.91;5057920;28;20661;-56
2022/12/01 09:26:29;;;;;;;50.50;34.57;;;8.00;77.00;;;10.77;55.56;102853.31;5057643;28;20208;-56
2022/12/01 09:28:59;;;;;;;48.00;32.80;;;8.10;78.30;;;10.78;55.50;102844.47;5069161;28;20271;-57
2022/12/01 09:31:27;;;;;;;43.70;30.27;;;8.00;77.20;;;10.81;55.40;102854.78;5077245;28;20716;-61
2022/12/01 09:33:56;;;;;;;45.57;31.27;;;8.00;77.40;;;10.77;55.03;102847.22;5077626;28;20538;-57
2022/12/01 09:36:23;;;;;;;46.27;29.70;;;8.00;76.70;;;10.76;55.14;102856.94;5077339;28;20196;-57
2022/12/01 09:38:52;;;;;;;44.50;30.17;;;8.00;77.10;;;10.77;55.13;102848.06;5092279;28;20200;-55
2022/12/01 09:41:24;;;;;;;45.63;30.43;;;8.00;77.10;;;10.80;55.01;102853.09;5097938;28;20284;-58
2022/12/01 09:44:01;;;;;;;51.00;33.10;;;8.00;77.10;;;10.76;54.96;102846.41;5080517;28;20185;-55
2022/12/01 09:46:39;;;;;;;53.37;34.40;;;8.00;77.10;;;10.69;55.34;102845.22;5058732;28;20174;-58
2022/12/01 09:49:16;;;;;;;51.27;33.03;;;8.00;77.10;;;10.64;55.99;102846.53;5059107;28;20682;-55
2022/12/01 09:51:43;;;;;;;51.23;32.83;;;8.00;77.20;;;10.67;56.01;102851.56;5069566;28;20286;-56
2022/12/01 09:54:13;;;;;;;51.23;32.23;;;8.00;77.30;;;10.66;55.91;102855.16;5077585;28;20193;-56
2022/12/01 09:56:45;;;;;;;54.63;34.27;;;7.90;77.10;;;10.67;55.61;102841.84;5078079;28;20195;-57
2022/12/01 09:59:22;;;;;;;54.63;34.33;;;7.90;77.50;;;10.66;55.70;102839.34;5077387;28;20188;-57
2022/12/01 10:01:55;;;;;;;55.60;34.87;;;7.90;77.50;;;10.68;55.85;102837.41;5067021;28;20304;-55
2022/12/01 10:04:30;;;;;;;51.47;33.13;;;7.90;77.60;;;10.71;55.52;102838.03;5072916;28;20193;-56
2022/12/01 10:07:01;;;;;;;53.97;33.30;;;7.90;77.70;;;10.77;56.08;102832.25;5078247;28;20363;-58
2022/12/01 10:09:38;;;;;;;52.20;33.23;;;8.00;77.80;;;10.81;56.29;102833.69;5077220;28;20286;-58
2022/12/01 10:12:13;;;;;;;50.30;33.90;;;8.00;78.20;;;10.86;55.98;102831.50;5076339;28;20208;-58
2022/12/01 10:14:45;;;;;;;55.87;34.67;;;8.00;78.30;;;10.91;55.05;102828.50;5076864;28;20205;-56
2022/12/01 10:17:27;;;;;;;49.80;33.60;;;8.10;77.30;;;10.92;55.66;102835.44;5076247;28;20208;-56
2022/12/01 10:20:03;;;;;;;52.03;33.20;;;8.10;77.50;;;10.94;55.65;102832.66;5059183;28;20221;-56
2022/12/01 10:23:13;;;;;;;50.97;32.13;;;8.10;77.30;;;10.96;55.27;102836.84;5056589;28;20269;-56